createdAt,value
2023-05-08T00:02:46.109Z,96880.91
2023-05-08T00:05:15.151Z,96886.81
2023-05-08T00:12:10.587Z,96874.25
2023-05-08T00:18:59.967Z,96873.00
2023-05-08T00:21:29.179Z,96872.09
2023-05-08T00:28:25.023Z,96867.72
2023-05-08T00:30:54.425Z,96872.84
2023-05-08T00:37:44.327Z,96877.25
2023-05-08T00:40:14.069Z,96880.75
2023-05-08T00:42:43.340Z,96879.72
2023-05-08T00:45:14.376Z,96874.72
2023-05-08T00:47:43.803Z,96882.25
2023-05-08T00:50:13.235Z,96875.81
2023-05-08T00:52:42.683Z,96868.84
2023-05-08T00:55:11.982Z,96866.88
2023-05-08T00:57:43.037Z,96868.59
2023-05-08T01:04:32.802Z,96879.53
2023-05-08T01:07:02.130Z,96876.31
2023-05-08T01:13:53.988Z,96881.31
2023-05-08T01:16:29.057Z,96875.25
2023-05-08T01:24:11.150Z,96881.69
2023-05-08T01:27:17.201Z,96889.31
2023-05-08T01:34:05.516Z,96879.84
2023-05-08T01:36:39.379Z,96875.09
2023-05-08T01:43:16.791Z,96893.22
2023-05-08T01:54:52.402Z,96897.97
2023-05-08T01:57:22.501Z,96889.50
2023-05-08T02:04:10.895Z,96894.00
2023-05-08T02:10:52.803Z,96895.69
2023-05-08T02:13:24.198Z,96898.00
2023-05-08T02:20:06.179Z,96904.19
2023-05-08T02:22:36.285Z,96890.69
2023-05-08T02:29:32.337Z,96898.28
2023-05-08T02:32:03.363Z,96902.16
2023-05-08T02:34:32.988Z,96906.03
2023-05-08T02:41:22.584Z,96909.97
2023-05-08T02:43:52.399Z,96902.72
2023-05-08T02:55:19.706Z,96908.44
2023-05-08T02:57:50.121Z,96903.53
2023-05-08T03:00:24.257Z,96901.34
2023-05-08T03:02:56.718Z,96902.16
2023-05-08T03:05:30.001Z,96898.03
2023-05-08T03:08:02.814Z,96888.94
2023-05-08T03:14:08.764Z,96905.78
2023-05-08T03:27:51.228Z,96897.25
2023-05-08T03:30:20.833Z,96896.38
2023-05-08T03:37:02.141Z,96905.38
2023-05-08T03:39:31.545Z,96889.25
2023-05-08T03:46:14.642Z,96904.03
2023-05-08T03:48:44.603Z,96903.34
2023-05-08T03:54:25.654Z,96914.25
2023-05-08T04:01:26.262Z,96908.94
2023-05-08T04:04:03.737Z,96913.94
2023-05-08T04:06:48.784Z,96920.59
2023-05-08T04:09:21.707Z,96922.25
2023-05-08T04:16:20.019Z,96920.88
2023-05-08T04:18:52.487Z,96916.72
2023-05-08T04:21:24.658Z,96922.63
2023-05-08T04:28:06.467Z,96938.53
2023-05-08T04:30:36.073Z,96932.03
2023-05-08T04:37:27.522Z,96956.81
2023-05-08T04:39:56.914Z,96952.56
2023-05-08T04:46:31.979Z,96959.06
2023-05-08T04:58:04.811Z,96965.78
2023-05-08T05:00:34.212Z,96985.84
2023-05-08T05:07:22.580Z,96989.13
2023-05-08T05:09:51.883Z,96986.47
2023-05-08T05:12:21.387Z,96985.44
2023-05-08T05:19:17.944Z,96992.63
2023-05-08T05:21:47.187Z,96980.06
2023-05-08T05:28:35.406Z,96996.25
2023-05-08T05:31:05.353Z,97001.97
2023-05-08T05:37:54.923Z,97008.09
2023-05-08T05:40:24.554Z,97010.88
2023-05-08T05:42:53.821Z,97007.47
2023-05-08T05:45:23.742Z,97009.88
2023-05-08T05:47:54.454Z,97003.06
2023-05-08T05:50:24.260Z,97000.28
2023-05-08T05:52:55.121Z,97000.19
2023-05-08T05:55:24.612Z,97001.63
2023-05-08T05:57:53.712Z,97003.63
2023-05-08T06:00:23.613Z,97005.88
2023-05-08T06:02:53.518Z,97014.66
2023-05-08T06:05:23.873Z,97013.34
2023-05-08T06:07:55.618Z,97010.03
2023-05-08T06:14:36.617Z,97017.72
2023-05-08T06:17:06.099Z,97015.38
2023-05-08T06:23:43.122Z,97026.19
2023-05-08T06:26:12.417Z,97020.75
2023-05-08T06:28:41.820Z,97026.81
2023-05-08T06:31:11.171Z,97028.38
2023-05-08T06:33:40.726Z,97033.06
2023-05-08T06:36:10.850Z,97032.69
2023-05-08T06:38:40.150Z,97034.25
2023-05-08T06:41:12.024Z,97036.44
2023-05-08T06:43:43.056Z,97024.09
2023-05-08T06:46:12.474Z,97036.50
2023-05-08T06:48:41.850Z,97037.38
2023-05-08T06:51:11.148Z,97030.91
2023-05-08T06:53:40.544Z,97037.25
2023-05-08T06:56:13.236Z,97030.13
2023-05-08T06:58:46.328Z,97034.84
2023-05-08T07:01:20.357Z,97043.34
2023-05-08T07:03:49.629Z,97044.75
2023-05-08T07:06:19.029Z,97040.81
2023-05-08T07:08:48.115Z,97039.28
2023-05-08T07:11:18.953Z,97030.69
2023-05-08T07:13:48.764Z,97043.06
2023-05-08T07:20:30.393Z,97054.34
2023-05-08T07:22:59.775Z,97047.75
2023-05-08T07:29:43.025Z,97053.34
2023-05-08T07:32:12.428Z,97064.34
2023-05-08T07:34:42.362Z,97061.03
2023-05-08T07:37:12.157Z,97061.69
2023-05-08T07:39:41.449Z,97066.06
2023-05-08T07:42:10.550Z,97061.25
2023-05-08T07:44:51.012Z,97061.97
2023-05-08T07:47:25.344Z,97071.03
2023-05-08T07:54:08.773Z,97077.09
2023-05-08T08:01:02.366Z,97074.41
2023-05-08T08:03:33.868Z,97076.34
2023-05-08T08:10:15.623Z,97072.81
2023-05-08T08:12:46.264Z,97077.66
2023-05-08T08:19:35.766Z,97068.41
2023-05-08T08:26:17.460Z,97065.00
2023-05-08T08:28:46.871Z,97069.69
2023-05-08T08:35:29.606Z,97075.09
2023-05-08T08:37:59.304Z,97073.00
2023-05-08T08:44:40.520Z,97061.69
2023-05-08T08:51:31.758Z,97062.25
2023-05-08T08:54:07.096Z,97053.34
2023-05-08T09:00:55.581Z,97062.69
2023-05-08T09:03:25.434Z,97054.09
2023-05-08T09:05:55.397Z,97041.91
2023-05-08T09:08:26.753Z,97042.72
2023-05-08T09:10:57.786Z,97047.66
2023-05-08T09:13:27.527Z,97047.63
2023-05-08T09:15:57.212Z,97044.00
2023-05-08T09:18:26.298Z,97046.47
2023-05-08T09:20:56.107Z,97046.69
2023-05-08T09:27:38.952Z,97040.69
2023-05-08T09:30:09.475Z,97037.81
2023-05-08T09:36:45.454Z,97040.66
2023-05-08T09:39:14.956Z,97028.41
2023-05-08T09:41:59.531Z,97029.16
2023-05-08T09:44:30.756Z,97035.66
2023-05-08T09:51:19.593Z,97028.22
2023-05-08T09:58:09.351Z,97024.81
2023-05-08T10:00:41.723Z,97026.81
2023-05-08T10:07:30.518Z,97007.31
2023-05-08T10:10:04.104Z,97009.97
2023-05-08T10:16:54.323Z,97008.13
2023-05-08T10:19:28.725Z,97000.72
2023-05-08T10:22:02.328Z,96994.84
2023-05-08T10:24:40.945Z,97003.03
2023-05-08T10:27:20.598Z,96995.63
2023-05-08T10:29:58.595Z,96989.41
2023-05-08T10:32:31.183Z,96988.66
2023-05-08T10:35:02.245Z,96978.34
2023-05-08T10:37:32.538Z,96986.09
2023-05-08T10:40:02.032Z,96987.59
2023-05-08T10:42:31.228Z,96982.47
2023-05-08T10:45:00.427Z,96986.19
2023-05-08T10:47:38.668Z,96977.38
2023-05-08T10:50:19.608Z,96972.38
2023-05-08T10:52:55.256Z,96969.75
2023-05-08T10:55:25.993Z,96971.91
2023-05-08T11:02:08.945Z,96958.94
2023-05-08T11:08:55.147Z,96955.94
2023-05-08T11:11:30.790Z,96946.81
2023-05-08T11:18:12.872Z,96939.16
2023-05-08T11:20:44.057Z,96945.75
2023-05-08T11:27:38.982Z,96938.72
2023-05-08T11:34:50.497Z,96939.78
2023-05-08T11:37:21.147Z,96935.34
2023-05-08T11:44:21.578Z,96942.44
2023-05-08T11:46:52.561Z,96936.44
2023-05-08T11:53:35.029Z,96940.09
2023-05-08T11:56:05.184Z,96935.41
2023-05-08T11:58:34.687Z,96936.44
2023-05-08T12:01:06.227Z,96929.94
2023-05-08T12:03:36.092Z,96930.47
2023-05-08T12:06:05.636Z,96938.47
2023-05-08T12:08:35.762Z,96944.78
2023-05-08T12:15:18.279Z,96943.66
2023-05-08T12:17:49.360Z,96943.75
2023-05-08T12:24:30.644Z,96947.13
2023-05-08T12:31:25.174Z,96941.59
2023-05-08T12:34:00.141Z,96940.88
2023-05-08T12:40:49.471Z,96938.69
2023-05-08T12:43:18.876Z,96936.09
2023-05-08T12:50:09.803Z,96927.53
2023-05-08T12:52:39.103Z,96925.78
2023-05-08T12:59:34.541Z,96909.00
2023-05-08T13:02:04.445Z,96911.22
2023-05-08T13:04:39.308Z,96911.97
2023-05-08T13:07:10.624Z,96912.19
2023-05-08T13:09:39.865Z,96892.56
2023-05-08T13:12:09.944Z,96907.00
2023-05-08T13:14:39.548Z,96903.47
2023-05-08T13:17:08.854Z,96904.63
2023-05-08T13:19:37.742Z,96905.88
2023-05-08T13:26:21.923Z,96891.31
2023-05-08T13:28:51.128Z,96889.13
2023-05-08T13:35:33.422Z,96899.84
2023-05-08T13:38:02.840Z,96890.34
2023-05-08T13:43:42.911Z,96888.44
2023-05-08T13:50:20.114Z,96889.75
2023-05-08T13:52:53.894Z,96888.44
2023-05-08T13:55:24.232Z,96885.97
2023-05-08T13:57:53.541Z,96891.31
2023-05-08T14:00:26.614Z,96886.84
2023-05-08T14:07:15.304Z,96899.84
2023-05-08T14:09:44.913Z,96906.78
2023-05-08T14:16:28.437Z,96901.69
2023-05-08T14:18:57.971Z,96907.09
2023-05-08T14:25:45.522Z,96901.97
2023-05-08T14:28:14.927Z,96899.63
2023-05-08T14:30:44.120Z,96903.47
2023-05-08T14:33:17.177Z,96908.72
2023-05-08T14:35:48.758Z,96904.03
2023-05-08T14:38:17.957Z,96911.97
2023-05-08T14:40:46.950Z,96913.41
2023-05-08T14:43:16.163Z,96911.88
2023-05-08T14:45:46.474Z,96910.38
2023-05-08T14:48:17.813Z,96922.28
2023-05-08T14:50:47.221Z,96905.09
2023-05-08T15:02:18.260Z,96910.19
2023-05-08T15:04:49.145Z,96907.84
2023-05-08T15:11:30.353Z,96907.03
2023-05-08T15:14:02.109Z,96908.44
2023-05-08T15:16:32.000Z,96899.50
2023-05-08T15:19:01.726Z,96902.78
2023-05-08T15:25:51.531Z,96900.66
2023-05-08T15:32:33.000Z,96902.63
2023-05-08T15:35:02.139Z,96899.56
2023-05-08T15:41:46.409Z,96898.19
2023-05-08T15:48:34.392Z,96892.19
2023-05-08T15:51:03.366Z,96892.56
2023-05-08T16:02:20.311Z,96871.25
2023-05-08T16:04:50.121Z,96877.59
2023-05-08T16:07:19.844Z,96880.38
2023-05-08T16:09:49.123Z,96859.47
2023-05-08T16:12:19.904Z,96876.91
2023-05-08T16:14:49.178Z,96874.56
2023-05-08T16:17:20.216Z,96877.34
2023-05-08T16:19:49.313Z,96867.72
2023-05-08T16:22:18.519Z,96868.94
2023-05-08T16:24:47.893Z,96871.84
2023-05-08T16:27:17.205Z,96872.53
2023-05-08T16:29:46.230Z,96866.94
2023-05-08T16:32:16.713Z,96877.84
2023-05-08T16:38:59.355Z,96876.59
2023-05-08T16:41:28.869Z,96883.31
2023-05-08T16:48:17.357Z,96885.78
2023-05-08T16:50:46.644Z,96894.22
2023-05-08T16:53:15.847Z,96881.09
2023-05-08T16:55:46.988Z,96892.50
2023-05-08T16:58:16.285Z,96872.00
2023-05-08T17:00:45.676Z,96895.97
2023-05-08T17:03:15.326Z,96910.38
2023-05-08T17:05:44.892Z,96887.38
2023-05-08T17:08:15.009Z,96905.69
2023-05-08T17:10:47.094Z,96898.28
2023-05-08T17:13:17.304Z,96902.31
2023-05-08T17:15:47.554Z,96906.31
2023-05-08T17:18:16.918Z,96904.97
2023-05-08T17:20:46.619Z,96899.31
2023-05-08T17:23:16.233Z,96906.94
2023-05-08T17:30:05.726Z,96919.84
2023-05-08T17:32:35.028Z,96919.22
2023-05-08T17:39:28.622Z,96921.97
2023-05-08T17:41:57.516Z,96929.22
2023-05-08T17:48:47.620Z,96930.81
2023-05-08T17:51:16.711Z,96932.22
2023-05-08T17:53:46.318Z,96936.81
2023-05-08T17:56:16.642Z,96936.75
2023-05-08T17:58:45.837Z,96924.97
2023-05-08T18:01:15.067Z,96938.59
2023-05-08T18:03:45.298Z,96936.31
2023-05-08T18:10:36.292Z,96949.09
2023-05-08T18:13:05.606Z,96955.66
2023-05-08T18:19:47.196Z,96953.81
2023-05-08T18:22:16.195Z,96951.59
2023-05-08T18:29:06.693Z,96951.56
2023-05-08T18:35:48.626Z,96961.44
2023-05-08T18:38:18.552Z,96968.53
2023-05-08T18:45:02.226Z,96965.91
2023-05-08T18:47:31.379Z,96971.00
2023-05-08T18:50:00.683Z,96976.44
2023-05-08T18:52:29.890Z,96984.53
2023-05-08T18:54:58.989Z,96970.84
2023-05-08T18:57:28.283Z,96979.75
2023-05-08T18:59:57.379Z,96987.88
2023-05-08T19:02:28.561Z,96986.34
2023-05-08T19:04:58.130Z,96988.28
2023-05-08T19:07:28.347Z,96986.34
2023-05-08T19:09:57.855Z,96980.63
2023-05-08T19:12:27.036Z,96979.22
2023-05-08T19:14:56.554Z,96981.72
2023-05-08T19:21:44.920Z,96978.94
2023-05-08T19:24:16.473Z,96979.50
2023-05-08T19:31:03.503Z,96980.56
2023-05-08T19:33:33.016Z,96972.09
2023-05-08T19:40:22.417Z,96980.44
2023-05-08T19:46:57.672Z,96961.72
2023-05-08T19:49:27.277Z,96975.91
2023-05-08T19:56:16.268Z,96967.78
2023-05-08T19:58:46.056Z,96969.19
2023-05-08T20:01:15.391Z,96966.91
2023-05-08T20:03:44.383Z,96969.44
2023-05-08T20:06:13.768Z,96978.91
2023-05-08T20:12:56.225Z,96978.69
2023-05-08T20:15:26.928Z,96970.34
2023-05-08T20:22:14.606Z,96980.22
2023-05-08T20:24:43.671Z,96975.44
2023-05-08T20:31:33.935Z,96973.97
2023-05-08T20:38:23.187Z,96987.81
2023-05-08T20:40:55.173Z,96983.09
2023-05-08T20:47:34.133Z,96982.66
2023-05-08T20:50:03.499Z,96984.94
2023-05-08T20:55:33.846Z,96976.28
2023-05-08T21:02:21.590Z,96982.56
2023-05-08T21:04:53.159Z,96989.28
2023-05-08T21:07:22.648Z,96991.69
2023-05-08T21:14:10.195Z,96991.03
2023-05-08T21:16:39.459Z,96985.19
2023-05-08T21:23:28.073Z,96989.22
2023-05-08T21:25:57.064Z,97000.16
2023-05-08T21:32:45.309Z,96988.53
2023-05-08T21:35:16.386Z,96990.59
2023-05-08T21:37:45.878Z,96988.88
2023-05-08T21:48:47.279Z,96991.31
2023-05-08T21:51:16.480Z,96991.75
2023-05-08T21:57:57.480Z,96986.19
2023-05-08T22:04:46.235Z,96986.91
2023-05-08T22:07:15.345Z,96986.97
2023-05-08T22:14:03.418Z,96993.22
2023-05-08T22:16:32.966Z,96991.91
2023-05-08T22:19:02.319Z,96986.50
2023-05-08T22:21:33.242Z,96992.06
2023-05-08T22:24:02.558Z,96994.66
2023-05-08T22:26:31.560Z,96989.22
2023-05-08T22:29:01.149Z,96985.44
2023-05-08T22:31:30.526Z,96987.66
2023-05-08T22:33:59.955Z,96990.25
2023-05-08T22:36:29.674Z,96978.16
2023-05-08T22:39:00.609Z,96985.09
2023-05-08T22:41:31.224Z,96982.03
2023-05-08T22:44:00.420Z,96987.53
2023-05-08T22:46:29.643Z,96980.28
2023-05-08T22:48:59.638Z,96978.72
2023-05-08T22:51:30.570Z,96971.34
2023-05-08T22:54:01.315Z,96980.09
2023-05-08T23:05:31.886Z,96974.66
2023-05-08T23:08:01.082Z,96964.13
2023-05-08T23:14:53.756Z,96964.91
2023-05-08T23:17:24.076Z,96957.72
2023-05-08T23:19:53.385Z,96966.56
2023-05-08T23:22:22.471Z,96966.53
2023-05-08T23:24:51.454Z,96964.59
2023-05-08T23:27:20.860Z,96954.69
2023-05-08T23:29:51.735Z,96962.88
2023-05-08T23:32:21.129Z,96958.13
2023-05-08T23:34:50.399Z,96949.25
2023-05-08T23:37:19.287Z,96949.56
2023-05-08T23:39:48.291Z,96938.72
2023-05-08T23:42:17.373Z,96942.81
2023-05-08T23:44:46.469Z,96932.34
2023-05-08T23:51:23.573Z,96939.78
2023-05-08T23:53:52.776Z,96934.25
